Mount Crested Butte, Colorado
Current Conditions -  °F | °C
As of 10:53 PM on Sunday 25 Jan 2015 (Local Time) from KASE Reporting Station
Clear Clear  
Wind Chill: 17°   Ceiling: Unl
Heat Index: 25°   Visibility: 10mi
Dew Point: 18°   Wind: 7mph
Humidity: 75%   Direction: 220°SW
Pressure: 30.43"   Gusts: NA
Location:  38.8977°N, 106.967°W
Report Text: KASE 260553Z 22006KT 10SM CLR M04/M08 A3043 RMK AO2 SLP290 T10391078 10044 21039 51003
Loading
Personal Weather Stations






























Interactive Weather Map New forecast layout! Learn more

10-Day Weather Forecast

Advertisements
Track Severe Weather on mobile